sensor_id;sensor_type;location;lat;lon;timestamp;P1;durP1;ratioP1;P2;durP2;ratioP2
819;SDS011;392;48.838;2.322;2023-03-05T00:02:21;12.77;;;11.57;;
819;SDS011;392;48.838;2.322;2023-03-05T00:04:48;11.53;;;10.43;;
819;SDS011;392;48.838;2.322;2023-03-05T00:07:15;11.13;;;10.13;;
819;SDS011;392;48.838;2.322;2023-03-05T00:09:43;12.10;;;10.90;;
819;SDS011;392;48.838;2.322;2023-03-05T00:12:11;12.50;;;11.30;;
819;SDS011;392;48.838;2.322;2023-03-05T00:14:39;12.90;;;11.70;;
819;SDS011;392;48.838;2.322;2023-03-05T00:17:06;12.57;;;11.37;;
819;SDS011;392;48.838;2.322;2023-03-05T00:19:33;13.20;;;11.80;;
819;SDS011;392;48.838;2.322;2023-03-05T00:22:01;12.73;;;11.50;;
819;SDS011;392;48.838;2.322;2023-03-05T00:24:28;14.03;;;12.63;;
819;SDS011;392;48.838;2.322;2023-03-05T00:26:55;15.20;;;13.67;;
819;SDS011;392;48.838;2.322;2023-03-05T00:29:24;16.50;;;14.80;;
819;SDS011;392;48.838;2.322;2023-03-05T00:31:52;18.23;;;14.20;;
819;SDS011;392;48.838;2.322;2023-03-05T00:34:20;13.70;;;12.50;;
819;SDS011;392;48.838;2.322;2023-03-05T00:36:50;12.70;;;11.50;;
819;SDS011;392;48.838;2.322;2023-03-05T00:39:18;12.43;;;11.33;;
819;SDS011;392;48.838;2.322;2023-03-05T00:41:47;13.17;;;11.90;;
819;SDS011;392;48.838;2.322;2023-03-05T00:44:15;12.20;;;11.00;;
819;SDS011;392;48.838;2.322;2023-03-05T00:46:43;12.47;;;11.27;;
819;SDS011;392;48.838;2.322;2023-03-05T00:49:11;12.37;;;10.40;;
819;SDS011;392;48.838;2.322;2023-03-05T00:51:39;11.00;;;10.00;;
819;SDS011;392;48.838;2.322;2023-03-05T00:54:07;12.27;;;11.00;;
819;SDS011;392;48.838;2.322;2023-03-05T00:56:34;10.47;;;9.50;;
819;SDS011;392;48.838;2.322;2023-03-05T00:59:02;11.17;;;10.07;;
819;SDS011;392;48.838;2.322;2023-03-05T01:01:29;11.13;;;10.13;;
819;SDS011;392;48.838;2.322;2023-03-05T01:03:58;11.07;;;9.97;;
819;SDS011;392;48.838;2.322;2023-03-05T01:06:26;11.10;;;10.00;;
819;SDS011;392;48.838;2.322;2023-03-05T01:08:54;11.17;;;10.13;;
819;SDS011;392;48.838;2.322;2023-03-05T01:11:22;11.37;;;10.30;;
819;SDS011;392;48.838;2.322;2023-03-05T01:13:49;10.53;;;9.53;;
819;SDS011;392;48.838;2.322;2023-03-05T01:16:17;11.00;;;10.03;;
819;SDS011;392;48.838;2.322;2023-03-05T01:18:44;10.60;;;9.60;;
819;SDS011;392;48.838;2.322;2023-03-05T01:21:13;10.80;;;9.60;;
819;SDS011;392;48.838;2.322;2023-03-05T01:23:40;10.77;;;9.67;;
819;SDS011;392;48.838;2.322;2023-03-05T01:26:08;10.70;;;9.70;;
819;SDS011;392;48.838;2.322;2023-03-05T01:28:35;11.20;;;10.10;;
819;SDS011;392;48.838;2.322;2023-03-05T01:31:05;11.13;;;10.03;;
819;SDS011;392;48.838;2.322;2023-03-05T01:33:34;11.20;;;10.00;;
819;SDS011;392;48.838;2.322;2023-03-05T01:36:01;11.60;;;10.50;;
819;SDS011;392;48.838;2.322;2023-03-05T01:38:33;11.40;;;10.20;;
819;SDS011;392;48.838;2.322;2023-03-05T01:41:01;11.40;;;10.30;;
819;SDS011;392;48.838;2.322;2023-03-05T01:43:28;12.63;;;11.33;;
819;SDS011;392;48.838;2.322;2023-03-05T01:48:59;11.97;;;10.53;;
819;SDS011;392;48.838;2.322;2023-03-05T01:51:47;14.20;;;11.33;;
819;SDS011;392;48.838;2.322;2023-03-05T01:54:23;12.43;;;11.13;;
819;SDS011;392;48.838;2.322;2023-03-05T01:56:58;12.90;;;11.67;;
819;SDS011;392;48.838;2.322;2023-03-05T01:59:32;11.83;;;10.63;;
819;SDS011;392;48.838;2.322;2023-03-05T02:02:02;11.37;;;10.13;;
819;SDS011;392;48.838;2.322;2023-03-05T02:04:31;13.83;;;12.20;;
819;SDS011;392;48.838;2.322;2023-03-05T02:07:04;13.40;;;12.03;;
819;SDS011;392;48.838;2.322;2023-03-05T02:09:36;13.10;;;11.70;;
819;SDS011;392;48.838;2.322;2023-03-05T02:12:05;12.33;;;11.10;;
819;SDS011;392;48.838;2.322;2023-03-05T02:14:33;13.03;;;11.80;;
819;SDS011;392;48.838;2.322;2023-03-05T02:17:01;13.53;;;12.13;;
819;SDS011;392;48.838;2.322;2023-03-05T02:19:28;12.83;;;11.53;;
819;SDS011;392;48.838;2.322;2023-03-05T02:21:57;24.17;;;12.00;;
819;SDS011;392;48.838;2.322;2023-03-05T02:24:32;12.87;;;11.57;;
819;SDS011;392;48.838;2.322;2023-03-05T02:27:02;13.10;;;11.63;;
819;SDS011;392;48.838;2.322;2023-03-05T02:29:30;16.60;;;13.30;;
819;SDS011;392;48.838;2.322;2023-03-05T02:32:00;16.47;;;13.93;;
819;SDS011;392;48.838;2.322;2023-03-05T02:34:27;16.73;;;13.50;;
819;SDS011;392;48.838;2.322;2023-03-05T02:36:56;14.50;;;12.93;;
819;SDS011;392;48.838;2.322;2023-03-05T02:39:24;15.83;;;14.13;;
819;SDS011;392;48.838;2.322;2023-03-05T02:41:51;15.30;;;12.97;;
819;SDS011;392;48.838;2.322;2023-03-05T02:44:19;17.10;;;13.70;;
819;SDS011;392;48.838;2.322;2023-03-05T02:46:46;16.00;;;13.60;;
819;SDS011;392;48.838;2.322;2023-03-05T02:49:14;15.23;;;13.13;;
819;SDS011;392;48.838;2.322;2023-03-05T02:51:41;15.20;;;13.60;;
819;SDS011;392;48.838;2.322;2023-03-05T02:54:10;15.70;;;13.30;;
819;SDS011;392;48.838;2.322;2023-03-05T02:56:38;15.17;;;13.47;;
819;SDS011;392;48.838;2.322;2023-03-05T02:59:07;16.30;;;13.47;;
819;SDS011;392;48.838;2.322;2023-03-05T03:01:35;19.20;;;14.70;;
819;SDS011;392;48.838;2.322;2023-03-05T03:04:02;14.77;;;13.20;;
819;SDS011;392;48.838;2.322;2023-03-05T03:06:30;15.33;;;13.73;;
819;SDS011;392;48.838;2.322;2023-03-05T03:08:57;13.97;;;12.47;;
819;SDS011;392;48.838;2.322;2023-03-05T03:11:26;17.47;;;13.83;;
819;SDS011;392;48.838;2.322;2023-03-05T03:13:53;16.23;;;14.10;;
819;SDS011;392;48.838;2.322;2023-03-05T03:16:20;15.60;;;13.30;;
819;SDS011;392;48.838;2.322;2023-03-05T03:18:47;16.13;;;14.00;;
819;SDS011;392;48.838;2.322;2023-03-05T03:21:15;16.77;;;14.97;;
819;SDS011;392;48.838;2.322;2023-03-05T03:23:44;17.70;;;14.60;;
819;SDS011;392;48.838;2.322;2023-03-05T03:26:12;17.33;;;13.93;;
819;SDS011;392;48.838;2.322;2023-03-05T03:28:41;15.63;;;13.47;;
819;SDS011;392;48.838;2.322;2023-03-05T03:31:08;16.90;;;13.77;;
819;SDS011;392;48.838;2.322;2023-03-05T03:33:36;18.10;;;14.57;;
819;SDS011;392;48.838;2.322;2023-03-05T03:36:04;16.87;;;12.97;;
819;SDS011;392;48.838;2.322;2023-03-05T03:38:32;16.97;;;13.20;;
819;SDS011;392;48.838;2.322;2023-03-05T03:40:59;15.03;;;12.50;;
819;SDS011;392;48.838;2.322;2023-03-05T03:43:27;16.27;;;13.30;;
819;SDS011;392;48.838;2.322;2023-03-05T03:45:55;12.83;;;11.53;;
819;SDS011;392;48.838;2.322;2023-03-05T03:48:23;14.07;;;12.00;;
819;SDS011;392;48.838;2.322;2023-03-05T03:50:50;14.27;;;12.77;;
819;SDS011;392;48.838;2.322;2023-03-05T03:53:17;13.80;;;11.87;;
819;SDS011;392;48.838;2.322;2023-03-05T03:55:44;13.90;;;11.90;;
819;SDS011;392;48.838;2.322;2023-03-05T03:58:12;13.30;;;11.27;;
819;SDS011;392;48.838;2.322;2023-03-05T04:00:39;15.43;;;12.00;;
819;SDS011;392;48.838;2.322;2023-03-05T04:03:08;13.50;;;11.70;;
819;SDS011;392;48.838;2.322;2023-03-05T04:05:36;12.70;;;11.30;;
819;SDS011;392;48.838;2.322;2023-03-05T04:08:03;12.53;;;11.30;;
819;SDS011;392;48.838;2.322;2023-03-05T04:10:36;13.60;;;11.57;;
819;SDS011;392;48.838;2.322;2023-03-05T04:13:03;13.70;;;11.30;;
819;SDS011;392;48.838;2.322;2023-03-05T04:15:33;13.33;;;12.03;;
819;SDS011;392;48.838;2.322;2023-03-05T04:18:00;12.20;;;10.90;;
819;SDS011;392;48.838;2.322;2023-03-05T04:20:29;14.00;;;11.80;;
819;SDS011;392;48.838;2.322;2023-03-05T04:22:56;14.40;;;12.47;;
819;SDS011;392;48.838;2.322;2023-03-05T04:25:23;13.60;;;11.47;;
819;SDS011;392;48.838;2.322;2023-03-05T04:27:51;13.90;;;12.17;;
819;SDS011;392;48.838;2.322;2023-03-05T04:30:18;14.20;;;12.60;;
819;SDS011;392;48.838;2.322;2023-03-05T04:32:45;15.27;;;12.37;;
819;SDS011;392;48.838;2.322;2023-03-05T04:35:13;18.63;;;12.83;;
819;SDS011;392;48.838;2.322;2023-03-05T04:37:41;14.20;;;11.43;;
819;SDS011;392;48.838;2.322;2023-03-05T04:40:09;14.97;;;12.63;;
819;SDS011;392;48.838;2.322;2023-03-05T04:42:37;14.37;;;11.80;;
819;SDS011;392;48.838;2.322;2023-03-05T04:45:05;13.87;;;12.40;;
819;SDS011;392;48.838;2.322;2023-03-05T04:47:34;15.33;;;12.50;;
819;SDS011;392;48.838;2.322;2023-03-05T04:50:02;14.97;;;12.50;;
819;SDS011;392;48.838;2.322;2023-03-05T04:52:32;14.43;;;12.20;;
819;SDS011;392;48.838;2.322;2023-03-05T04:55:00;13.40;;;11.37;;
819;SDS011;392;48.838;2.322;2023-03-05T04:57:28;15.37;;;12.57;;
819;SDS011;392;48.838;2.322;2023-03-05T04:59:56;13.97;;;10.90;;
819;SDS011;392;48.838;2.322;2023-03-05T05:02:24;12.80;;;10.87;;
819;SDS011;392;48.838;2.322;2023-03-05T05:04:51;12.63;;;10.30;;
819;SDS011;392;48.838;2.322;2023-03-05T05:07:18;13.23;;;11.03;;
819;SDS011;392;48.838;2.322;2023-03-05T05:09:46;13.30;;;10.97;;
819;SDS011;392;48.838;2.322;2023-03-05T05:12:14;13.37;;;10.33;;
819;SDS011;392;48.838;2.322;2023-03-05T05:14:42;13.20;;;11.80;;
819;SDS011;392;48.838;2.322;2023-03-05T05:17:09;15.17;;;11.50;;
819;SDS011;392;48.838;2.322;2023-03-05T05:19:36;13.87;;;11.77;;
819;SDS011;392;48.838;2.322;2023-03-05T05:22:03;13.50;;;11.47;;
819;SDS011;392;48.838;2.322;2023-03-05T05:24:31;12.73;;;11.23;;
819;SDS011;392;48.838;2.322;2023-03-05T05:26:58;13.60;;;11.03;;
819;SDS011;392;48.838;2.322;2023-03-05T05:29:27;12.50;;;11.13;;
819;SDS011;392;48.838;2.322;2023-03-05T05:31:54;11.30;;;10.10;;
819;SDS011;392;48.838;2.322;2023-03-05T05:34:22;14.53;;;12.03;;
819;SDS011;392;48.838;2.322;2023-03-05T05:36:50;13.00;;;11.40;;
819;SDS011;392;48.838;2.322;2023-03-05T05:39:18;12.93;;;11.17;;
819;SDS011;392;48.838;2.322;2023-03-05T05:41:45;13.97;;;11.53;;
819;SDS011;392;48.838;2.322;2023-03-05T05:44:16;14.30;;;12.30;;
819;SDS011;392;48.838;2.322;2023-03-05T05:46:45;14.20;;;12.10;;
819;SDS011;392;48.838;2.322;2023-03-05T05:49:12;12.00;;;10.63;;
819;SDS011;392;48.838;2.322;2023-03-05T05:51:39;13.00;;;11.60;;
819;SDS011;392;48.838;2.322;2023-03-05T05:54:09;14.67;;;13.07;;
819;SDS011;392;48.838;2.322;2023-03-05T05:56:38;13.90;;;12.30;;
819;SDS011;392;48.838;2.322;2023-03-05T05:59:06;14.70;;;12.40;;
819;SDS011;392;48.838;2.322;2023-03-05T06:01:34;14.47;;;12.43;;
819;SDS011;392;48.838;2.322;2023-03-05T06:04:03;12.30;;;11.00;;
819;SDS011;392;48.838;2.322;2023-03-05T06:06:30;15.80;;;12.33;;
819;SDS011;392;48.838;2.322;2023-03-05T06:08:59;13.37;;;11.93;;
819;SDS011;392;48.838;2.322;2023-03-05T06:11:26;14.60;;;12.30;;
819;SDS011;392;48.838;2.322;2023-03-05T06:13:54;13.27;;;11.70;;
819;SDS011;392;48.838;2.322;2023-03-05T06:16:22;14.10;;;12.40;;
819;SDS011;392;48.838;2.322;2023-03-05T06:18:51;12.27;;;11.00;;
819;SDS011;392;48.838;2.322;2023-03-05T06:21:20;11.77;;;10.47;;
819;SDS011;392;48.838;2.322;2023-03-05T06:23:49;12.20;;;10.90;;
819;SDS011;392;48.838;2.322;2023-03-05T06:26:18;12.17;;;10.00;;
819;SDS011;392;48.838;2.322;2023-03-05T06:28:47;11.10;;;9.00;;
819;SDS011;392;48.838;2.322;2023-03-05T06:31:14;10.63;;;9.20;;
819;SDS011;392;48.838;2.322;2023-03-05T06:33:44;11.50;;;10.30;;
819;SDS011;392;48.838;2.322;2023-03-05T06:36:12;10.83;;;9.73;;
819;SDS011;392;48.838;2.322;2023-03-05T06:38:42;12.27;;;10.97;;
819;SDS011;392;48.838;2.322;2023-03-05T06:41:10;11.83;;;10.63;;
819;SDS011;392;48.838;2.322;2023-03-05T06:43:41;10.93;;;9.83;;
819;SDS011;392;48.838;2.322;2023-03-05T06:46:11;12.30;;;10.83;;
819;SDS011;392;48.838;2.322;2023-03-05T06:48:40;13.17;;;11.30;;
819;SDS011;392;48.838;2.322;2023-03-05T06:51:12;12.73;;;11.10;;
819;SDS011;392;48.838;2.322;2023-03-05T06:53:40;15.23;;;12.67;;
819;SDS011;392;48.838;2.322;2023-03-05T06:56:10;13.50;;;12.10;;
819;SDS011;392;48.838;2.322;2023-03-05T06:58:41;13.67;;;12.17;;
819;SDS011;392;48.838;2.322;2023-03-05T07:01:10;12.93;;;11.23;;
819;SDS011;392;48.838;2.322;2023-03-05T07:03:38;13.53;;;11.20;;
819;SDS011;392;48.838;2.322;2023-03-05T07:06:06;12.63;;;11.33;;
819;SDS011;392;48.838;2.322;2023-03-05T07:08:35;13.90;;;11.90;;
819;SDS011;392;48.838;2.322;2023-03-05T07:11:04;12.10;;;10.30;;
819;SDS011;392;48.838;2.322;2023-03-05T07:13:36;12.40;;;11.10;;
819;SDS011;392;48.838;2.322;2023-03-05T07:16:04;13.20;;;11.60;;
819;SDS011;392;48.838;2.322;2023-03-05T07:18:32;12.43;;;11.07;;
819;SDS011;392;48.838;2.322;2023-03-05T07:21:03;12.03;;;10.83;;
819;SDS011;392;48.838;2.322;2023-03-05T07:23:32;12.10;;;10.33;;
819;SDS011;392;48.838;2.322;2023-03-05T07:26:00;12.90;;;10.50;;
819;SDS011;392;48.838;2.322;2023-03-05T07:28:29;12.73;;;11.03;;
819;SDS011;392;48.838;2.322;2023-03-05T07:30:57;12.13;;;10.93;;
819;SDS011;392;48.838;2.322;2023-03-05T07:33:26;10.47;;;9.47;;
819;SDS011;392;48.838;2.322;2023-03-05T07:35:53;10.57;;;9.33;;
819;SDS011;392;48.838;2.322;2023-03-05T07:38:21;10.33;;;9.20;;
819;SDS011;392;48.838;2.322;2023-03-05T07:40:49;11.53;;;10.40;;
819;SDS011;392;48.838;2.322;2023-03-05T07:43:16;11.57;;;9.73;;
819;SDS011;392;48.838;2.322;2023-03-05T07:45:45;11.33;;;10.07;;
819;SDS011;392;48.838;2.322;2023-03-05T07:48:13;10.40;;;9.33;;
819;SDS011;392;48.838;2.322;2023-03-05T07:50:45;11.47;;;9.53;;
819;SDS011;392;48.838;2.322;2023-03-05T07:53:13;10.87;;;9.53;;
819;SDS011;392;48.838;2.322;2023-03-05T07:55:41;12.10;;;10.80;;
819;SDS011;392;48.838;2.322;2023-03-05T07:58:09;12.43;;;10.63;;
819;SDS011;392;48.838;2.322;2023-03-05T08:00:37;12.60;;;10.90;;
819;SDS011;392;48.838;2.322;2023-03-05T08:03:06;11.93;;;10.60;;
819;SDS011;392;48.838;2.322;2023-03-05T08:05:34;12.13;;;10.93;;
819;SDS011;392;48.838;2.322;2023-03-05T08:08:04;10.37;;;9.37;;
819;SDS011;392;48.838;2.322;2023-03-05T08:10:32;11.00;;;9.90;;
819;SDS011;392;48.838;2.322;2023-03-05T08:12:59;8.57;;;7.77;;
819;SDS011;392;48.838;2.322;2023-03-05T08:15:27;12.77;;;10.30;;
819;SDS011;392;48.838;2.322;2023-03-05T08:17:55;11.90;;;9.77;;
819;SDS011;392;48.838;2.322;2023-03-05T08:20:24;11.00;;;9.00;;
819;SDS011;392;48.838;2.322;2023-03-05T08:22:52;11.93;;;9.33;;
819;SDS011;392;48.838;2.322;2023-03-05T08:25:19;10.40;;;9.30;;
819;SDS011;392;48.838;2.322;2023-03-05T08:27:47;10.83;;;8.80;;
819;SDS011;392;48.838;2.322;2023-03-05T08:30:16;10.30;;;9.13;;
819;SDS011;392;48.838;2.322;2023-03-05T08:32:51;11.10;;;9.70;;
819;SDS011;392;48.838;2.322;2023-03-05T08:35:21;13.87;;;10.00;;
819;SDS011;392;48.838;2.322;2023-03-05T08:37:50;10.43;;;9.33;;
819;SDS011;392;48.838;2.322;2023-03-05T08:40:17;11.40;;;9.50;;
819;SDS011;392;48.838;2.322;2023-03-05T08:42:45;10.70;;;9.30;;
819;SDS011;392;48.838;2.322;2023-03-05T08:45:12;10.60;;;9.50;;
819;SDS011;392;48.838;2.322;2023-03-05T08:47:39;11.93;;;9.87;;
819;SDS011;392;48.838;2.322;2023-03-05T08:50:07;11.50;;;10.30;;
819;SDS011;392;48.838;2.322;2023-03-05T08:52:36;13.27;;;10.90;;
819;SDS011;392;48.838;2.322;2023-03-05T08:55:05;11.57;;;9.87;;
819;SDS011;392;48.838;2.322;2023-03-05T08:57:33;11.97;;;10.37;;
819;SDS011;392;48.838;2.322;2023-03-05T09:00:00;12.03;;;10.60;;
819;SDS011;392;48.838;2.322;2023-03-05T09:02:28;11.10;;;9.83;;
819;SDS011;392;48.838;2.322;2023-03-05T09:04:55;14.90;;;11.17;;
819;SDS011;392;48.838;2.322;2023-03-05T09:07:23;12.30;;;10.20;;
819;SDS011;392;48.838;2.322;2023-03-05T09:09:50;14.50;;;11.13;;
819;SDS011;392;48.838;2.322;2023-03-05T09:12:19;13.13;;;11.73;;
819;SDS011;392;48.838;2.322;2023-03-05T09:14:46;12.67;;;11.03;;
819;SDS011;392;48.838;2.322;2023-03-05T09:17:14;13.03;;;11.17;;
819;SDS011;392;48.838;2.322;2023-03-05T09:19:41;12.60;;;11.30;;
819;SDS011;392;48.838;2.322;2023-03-05T09:22:08;12.70;;;11.40;;
819;SDS011;392;48.838;2.322;2023-03-05T09:24:36;12.00;;;10.70;;
819;SDS011;392;48.838;2.322;2023-03-05T09:27:03;13.63;;;10.90;;
819;SDS011;392;48.838;2.322;2023-03-05T09:29:32;12.87;;;11.23;;
819;SDS011;392;48.838;2.322;2023-03-05T09:31:59;12.60;;;10.80;;
819;SDS011;392;48.838;2.322;2023-03-05T09:34:27;12.33;;;10.60;;
819;SDS011;392;48.838;2.322;2023-03-05T09:36:54;11.60;;;10.00;;
819;SDS011;392;48.838;2.322;2023-03-05T09:39:21;11.37;;;9.67;;
819;SDS011;392;48.838;2.322;2023-03-05T09:42:00;13.30;;;10.20;;
819;SDS011;392;48.838;2.322;2023-03-05T09:44:45;13.50;;;11.30;;
819;SDS011;392;48.838;2.322;2023-03-05T09:47:21;12.40;;;10.30;;
819;SDS011;392;48.838;2.322;2023-03-05T09:50:09;14.20;;;10.77;;
819;SDS011;392;48.838;2.322;2023-03-05T09:52:56;12.67;;;10.60;;
819;SDS011;392;48.838;2.322;2023-03-05T09:55:33;12.30;;;10.30;;
819;SDS011;392;48.838;2.322;2023-03-05T09:58:05;12.60;;;10.70;;
819;SDS011;392;48.838;2.322;2023-03-05T10:00:40;11.20;;;9.70;;
819;SDS011;392;48.838;2.322;2023-03-05T10:03:11;9.53;;;8.53;;
819;SDS011;392;48.838;2.322;2023-03-05T10:08:37;11.50;;;9.37;;
819;SDS011;392;48.838;2.322;2023-03-05T10:11:18;11.43;;;9.97;;
819;SDS011;392;48.838;2.322;2023-03-05T10:13:59;12.00;;;9.90;;
819;SDS011;392;48.838;2.322;2023-03-05T10:16:34;9.43;;;7.23;;
819;SDS011;392;48.838;2.322;2023-03-05T10:19:20;8.30;;;7.50;;
819;SDS011;392;48.838;2.322;2023-03-05T10:22:12;8.70;;;7.80;;
819;SDS011;392;48.838;2.322;2023-03-05T10:24:48;9.37;;;8.13;;
819;SDS011;392;48.838;2.322;2023-03-05T10:27:34;8.30;;;7.50;;
819;SDS011;392;48.838;2.322;2023-03-05T10:30:15;8.10;;;7.30;;
819;SDS011;392;48.838;2.322;2023-03-05T10:33:01;10.83;;;9.00;;
819;SDS011;392;48.838;2.322;2023-03-05T10:35:47;8.70;;;7.80;;
819;SDS011;392;48.838;2.322;2023-03-05T10:42:09;8.70;;;7.80;;
819;SDS011;392;48.838;2.322;2023-03-05T10:44:49;9.43;;;8.53;;
819;SDS011;392;48.838;2.322;2023-03-05T10:47:21;16.47;;;14.97;;
819;SDS011;392;48.838;2.322;2023-03-05T10:49:55;11.57;;;9.20;;
819;SDS011;392;48.838;2.322;2023-03-05T10:52:26;10.13;;;9.00;;
819;SDS011;392;48.838;2.322;2023-03-05T10:54:58;9.40;;;7.97;;
819;SDS011;392;48.838;2.322;2023-03-05T10:57:26;9.53;;;8.00;;
819;SDS011;392;48.838;2.322;2023-03-05T10:59:57;9.40;;;7.40;;
819;SDS011;392;48.838;2.322;2023-03-05T11:02:51;8.80;;;7.90;;
819;SDS011;392;48.838;2.322;2023-03-05T11:08:21;9.00;;;7.87;;
819;SDS011;392;48.838;2.322;2023-03-05T11:11:02;9.17;;;8.27;;
819;SDS011;392;48.838;2.322;2023-03-05T11:13:37;8.97;;;6.87;;
819;SDS011;392;48.838;2.322;2023-03-05T11:16:19;7.67;;;6.97;;
819;SDS011;392;48.838;2.322;2023-03-05T11:18:49;10.40;;;8.50;;
819;SDS011;392;48.838;2.322;2023-03-05T11:21:22;10.60;;;9.50;;
819;SDS011;392;48.838;2.322;2023-03-05T11:24:05;11.57;;;7.70;;
819;SDS011;392;48.838;2.322;2023-03-05T11:26:43;7.00;;;6.30;;
819;SDS011;392;48.838;2.322;2023-03-05T11:29:18;7.47;;;6.77;;
819;SDS011;392;48.838;2.322;2023-03-05T11:31:49;7.50;;;6.90;;
819;SDS011;392;48.838;2.322;2023-03-05T11:34:21;7.87;;;7.07;;
819;SDS011;392;48.838;2.322;2023-03-05T11:37:00;7.47;;;6.77;;
819;SDS011;392;48.838;2.322;2023-03-05T11:39:31;7.20;;;6.50;;
819;SDS011;392;48.838;2.322;2023-03-05T11:42:04;7.70;;;7.10;;
819;SDS011;392;48.838;2.322;2023-03-05T11:44:39;8.50;;;7.70;;
819;SDS011;392;48.838;2.322;2023-03-05T11:47:15;7.90;;;7.20;;
819;SDS011;392;48.838;2.322;2023-03-05T11:49:50;8.57;;;6.97;;
819;SDS011;392;48.838;2.322;2023-03-05T11:52:23;8.10;;;6.87;;
819;SDS011;392;48.838;2.322;2023-03-05T11:54:58;6.00;;;5.50;;
819;SDS011;392;48.838;2.322;2023-03-05T11:57:35;7.50;;;6.30;;
819;SDS011;392;48.838;2.322;2023-03-05T12:00:12;7.30;;;6.70;;
819;SDS011;392;48.838;2.322;2023-03-05T12:02:44;7.90;;;7.10;;
819;SDS011;392;48.838;2.322;2023-03-05T12:05:17;8.57;;;7.77;;
819;SDS011;392;48.838;2.322;2023-03-05T12:07:47;7.20;;;6.50;;
819;SDS011;392;48.838;2.322;2023-03-05T12:10:19;5.50;;;5.10;;
819;SDS011;392;48.838;2.322;2023-03-05T12:12:51;6.47;;;5.90;;
819;SDS011;392;48.838;2.322;2023-03-05T12:15:30;6.73;;;6.03;;
819;SDS011;392;48.838;2.322;2023-03-05T12:21:13;7.50;;;6.80;;
819;SDS011;392;48.838;2.322;2023-03-05T12:23:52;7.67;;;6.87;;
819;SDS011;392;48.838;2.322;2023-03-05T12:29:28;8.10;;;7.30;;
819;SDS011;392;48.838;2.322;2023-03-05T12:32:04;7.90;;;7.10;;
819;SDS011;392;48.838;2.322;2023-03-05T12:35:26;7.10;;;6.40;;
819;SDS011;392;48.838;2.322;2023-03-05T12:38:17;7.90;;;7.10;;
819;SDS011;392;48.838;2.322;2023-03-05T12:44:17;7.03;;;6.33;;
819;SDS011;392;48.838;2.322;2023-03-05T12:49:49;8.37;;;7.47;;
819;SDS011;392;48.838;2.322;2023-03-05T12:52:21;7.97;;;7.10;;
819;SDS011;392;48.838;2.322;2023-03-05T12:57:48;8.03;;;7.23;;
819;SDS011;392;48.838;2.322;2023-03-05T13:00:23;8.30;;;7.50;;
819;SDS011;392;48.838;2.322;2023-03-05T13:02:58;7.47;;;6.80;;
819;SDS011;392;48.838;2.322;2023-03-05T13:05:28;7.33;;;6.63;;
819;SDS011;392;48.838;2.322;2023-03-05T13:08:10;7.43;;;6.73;;
819;SDS011;392;48.838;2.322;2023-03-05T13:10:39;7.00;;;6.30;;
819;SDS011;392;48.838;2.322;2023-03-05T13:13:11;6.50;;;5.90;;
819;SDS011;392;48.838;2.322;2023-03-05T13:15:43;7.40;;;6.70;;
819;SDS011;392;48.838;2.322;2023-03-05T13:18:15;7.07;;;6.47;;
819;SDS011;392;48.838;2.322;2023-03-05T13:20:46;6.90;;;6.20;;
819;SDS011;392;48.838;2.322;2023-03-05T13:23:21;6.23;;;5.73;;
819;SDS011;392;48.838;2.322;2023-03-05T13:25:58;6.60;;;5.90;;
819;SDS011;392;48.838;2.322;2023-03-05T13:28:38;7.10;;;6.40;;
819;SDS011;392;48.838;2.322;2023-03-05T13:31:11;7.47;;;6.77;;
819;SDS011;392;48.838;2.322;2023-03-05T13:33:40;6.70;;;6.10;;
819;SDS011;392;48.838;2.322;2023-03-05T13:36:17;6.57;;;5.93;;
819;SDS011;392;48.838;2.322;2023-03-05T13:38:45;6.93;;;6.33;;
819;SDS011;392;48.838;2.322;2023-03-05T13:41:18;7.30;;;6.60;;
819;SDS011;392;48.838;2.322;2023-03-05T13:43:52;6.63;;;6.03;;
819;SDS011;392;48.838;2.322;2023-03-05T13:46:22;6.93;;;6.33;;
819;SDS011;392;48.838;2.322;2023-03-05T13:48:51;7.57;;;6.97;;
819;SDS011;392;48.838;2.322;2023-03-05T13:51:19;7.60;;;6.90;;
819;SDS011;392;48.838;2.322;2023-03-05T13:53:47;8.93;;;7.97;;
819;SDS011;392;48.838;2.322;2023-03-05T13:56:16;7.70;;;6.97;;
819;SDS011;392;48.838;2.322;2023-03-05T13:58:46;7.90;;;7.20;;
819;SDS011;392;48.838;2.322;2023-03-05T14:01:23;7.60;;;6.90;;
819;SDS011;392;48.838;2.322;2023-03-05T14:03:55;7.70;;;7.00;;
819;SDS011;392;48.838;2.322;2023-03-05T14:06:26;8.40;;;7.17;;
819;SDS011;392;48.838;2.322;2023-03-05T14:08:58;8.00;;;7.20;;
819;SDS011;392;48.838;2.322;2023-03-05T14:11:30;8.43;;;7.63;;
819;SDS011;392;48.838;2.322;2023-03-05T14:14:01;7.67;;;6.87;;
819;SDS011;392;48.838;2.322;2023-03-05T14:16:35;8.07;;;6.87;;
819;SDS011;392;48.838;2.322;2023-03-05T14:19:03;8.03;;;7.33;;
819;SDS011;392;48.838;2.322;2023-03-05T14:21:41;6.53;;;5.93;;
819;SDS011;392;48.838;2.322;2023-03-05T14:24:12;6.77;;;6.10;;
819;SDS011;392;48.838;2.322;2023-03-05T14:26:47;5.80;;;5.30;;
819;SDS011;392;48.838;2.322;2023-03-05T14:29:18;5.30;;;4.90;;
819;SDS011;392;48.838;2.322;2023-03-05T14:31:50;7.40;;;6.70;;
819;SDS011;392;48.838;2.322;2023-03-05T14:34:22;6.70;;;6.00;;
819;SDS011;392;48.838;2.322;2023-03-05T14:36:54;5.30;;;4.90;;
819;SDS011;392;48.838;2.322;2023-03-05T14:39:37;4.30;;;4.00;;
819;SDS011;392;48.838;2.322;2023-03-05T14:42:19;5.60;;;5.13;;
819;SDS011;392;48.838;2.322;2023-03-05T14:45:04;5.90;;;5.30;;
819;SDS011;392;48.838;2.322;2023-03-05T14:47:39;5.93;;;5.43;;
819;SDS011;392;48.838;2.322;2023-03-05T14:50:07;6.10;;;5.50;;
819;SDS011;392;48.838;2.322;2023-03-05T14:52:36;7.03;;;6.33;;
819;SDS011;392;48.838;2.322;2023-03-05T14:55:04;7.00;;;6.30;;
819;SDS011;392;48.838;2.322;2023-03-05T14:57:32;6.07;;;5.47;;
819;SDS011;392;48.838;2.322;2023-03-05T14:59:59;5.83;;;5.33;;
819;SDS011;392;48.838;2.322;2023-03-05T15:02:27;6.10;;;5.60;;
819;SDS011;392;48.838;2.322;2023-03-05T15:04:55;5.93;;;5.33;;
819;SDS011;392;48.838;2.322;2023-03-05T15:07:24;6.03;;;5.43;;
819;SDS011;392;48.838;2.322;2023-03-05T15:09:55;6.13;;;5.60;;
819;SDS011;392;48.838;2.322;2023-03-05T15:12:24;6.20;;;5.60;;
819;SDS011;392;48.838;2.322;2023-03-05T15:14:51;6.80;;;6.20;;
819;SDS011;392;48.838;2.322;2023-03-05T15:17:21;5.40;;;4.90;;
819;SDS011;392;48.838;2.322;2023-03-05T15:20:00;6.10;;;5.60;;
819;SDS011;392;48.838;2.322;2023-03-05T15:22:30;6.97;;;6.07;;
819;SDS011;392;48.838;2.322;2023-03-05T15:24:58;5.63;;;4.80;;
819;SDS011;392;48.838;2.322;2023-03-05T15:27:25;6.23;;;4.80;;
819;SDS011;392;48.838;2.322;2023-03-05T15:29:53;7.20;;;6.60;;
819;SDS011;392;48.838;2.322;2023-03-05T15:32:20;7.07;;;6.23;;
819;SDS011;392;48.838;2.322;2023-03-05T15:34:47;6.30;;;5.70;;
819;SDS011;392;48.838;2.322;2023-03-05T15:37:16;5.83;;;5.43;;
819;SDS011;392;48.838;2.322;2023-03-05T15:39:44;6.17;;;5.60;;
819;SDS011;392;48.838;2.322;2023-03-05T15:42:11;7.17;;;6.50;;
819;SDS011;392;48.838;2.322;2023-03-05T15:44:39;9.40;;;8.60;;
819;SDS011;392;48.838;2.322;2023-03-05T15:47:06;7.17;;;6.47;;
819;SDS011;392;48.838;2.322;2023-03-05T15:49:34;6.20;;;5.60;;
819;SDS011;392;48.838;2.322;2023-03-05T15:52:01;7.17;;;6.47;;
819;SDS011;392;48.838;2.322;2023-03-05T15:54:30;5.93;;;5.40;;
819;SDS011;392;48.838;2.322;2023-03-05T15:56:57;8.03;;;7.10;;
819;SDS011;392;48.838;2.322;2023-03-05T15:59:25;6.90;;;6.20;;
819;SDS011;392;48.838;2.322;2023-03-05T16:01:52;6.40;;;5.80;;
819;SDS011;392;48.838;2.322;2023-03-05T16:04:19;6.73;;;6.03;;
819;SDS011;392;48.838;2.322;2023-03-05T16:06:47;6.70;;;6.00;;
819;SDS011;392;48.838;2.322;2023-03-05T16:09:16;7.20;;;6.60;;
819;SDS011;392;48.838;2.322;2023-03-05T16:11:46;9.93;;;9.03;;
819;SDS011;392;48.838;2.322;2023-03-05T16:14:16;7.53;;;6.63;;
819;SDS011;392;48.838;2.322;2023-03-05T16:16:47;5.80;;;5.30;;